createdAt,value
2018-01-17T00:00:58.252Z,1.80
2018-01-17T00:03:28.398Z,4.30
2018-01-17T00:05:57.789Z,3.20
2018-01-17T00:08:27.951Z,1.80
2018-01-17T00:10:57.316Z,1.62
2018-01-17T00:13:27.072Z,1.62
2018-01-17T00:15:56.420Z,2.00
2018-01-17T00:18:26.529Z,1.50
2018-01-17T00:20:56.707Z,2.55
2018-01-17T00:23:26.104Z,1.55
2018-01-17T00:25:55.525Z,2.28
2018-01-17T00:28:24.912Z,1.73
2018-01-17T00:30:54.347Z,1.62
2018-01-17T00:33:23.697Z,1.52
2018-01-17T00:35:53.084Z,2.28
2018-01-17T00:38:23.333Z,3.37
2018-01-17T00:40:52.686Z,1.85
2018-01-17T00:43:22.068Z,2.95
2018-01-17T00:45:51.415Z,2.85
2018-01-17T00:48:20.914Z,1.37
2018-01-17T00:50:51.043Z,2.05
2018-01-17T00:53:20.408Z,2.90
2018-01-17T00:55:49.772Z,3.78
2018-01-17T00:58:19.123Z,1.90
2018-01-17T01:00:49.248Z,2.95
2018-01-17T01:03:19.364Z,1.83
2018-01-17T01:05:49.491Z,1.87
2018-01-17T01:08:19.621Z,1.40
2018-01-17T01:10:48.941Z,1.80
2018-01-17T01:13:18.310Z,2.55
2018-01-17T01:15:48.425Z,2.35
2018-01-17T01:18:18.563Z,2.55
2018-01-17T01:20:47.913Z,4.80
2018-01-17T01:23:17.253Z,2.97
2018-01-17T01:25:47.378Z,1.65
2018-01-17T01:28:16.725Z,1.33
2018-01-17T01:30:46.823Z,1.30
2018-01-17T01:33:16.167Z,2.15
2018-01-17T01:35:45.504Z,1.10
2018-01-17T01:38:14.849Z,1.60
2018-01-17T01:40:44.205Z,1.70
2018-01-17T01:43:14.310Z,1.55
2018-01-17T01:45:44.415Z,1.12
2018-01-17T01:48:13.734Z,1.40
2018-01-17T01:50:43.859Z,1.62
2018-01-17T01:53:13.973Z,1.60
2018-01-17T01:55:44.072Z,2.17
2018-01-17T01:58:13.402Z,2.30
2018-01-17T02:00:43.531Z,1.37
2018-01-17T02:03:12.877Z,3.45
2018-01-17T02:05:42.209Z,2.35
2018-01-17T02:08:11.550Z,1.30
2018-01-17T02:10:40.929Z,1.20
2018-01-17T02:13:11.035Z,1.80
2018-01-17T02:15:41.160Z,3.17
2018-01-17T02:18:11.259Z,3.70
2018-01-17T02:20:40.613Z,1.58
2018-01-17T02:23:09.954Z,2.10
2018-01-17T02:25:39.297Z,2.28
2018-01-17T02:28:08.605Z,2.58
2018-01-17T02:30:37.954Z,3.45
2018-01-17T02:33:07.302Z,2.83
2018-01-17T02:35:37.501Z,2.20
2018-01-17T02:38:06.832Z,3.35
2018-01-17T02:40:40.621Z,2.05
2018-01-17T02:43:10.771Z,2.45
2018-01-17T02:45:40.099Z,3.65
2018-01-17T02:48:09.426Z,6.55
2018-01-17T02:50:38.781Z,3.33
2018-01-17T02:53:08.102Z,2.45
2018-01-17T02:55:37.432Z,2.95
2018-01-17T02:58:07.540Z,5.62
2018-01-17T03:00:36.870Z,5.60
2018-01-17T03:03:06.241Z,6.35
2018-01-17T03:05:35.601Z,1.65
2018-01-17T03:08:04.969Z,5.12
2018-01-17T03:10:35.104Z,1.95
2018-01-17T03:13:04.423Z,4.50
2018-01-17T03:15:34.084Z,2.28
2018-01-17T03:18:03.424Z,3.28
2018-01-17T03:20:33.505Z,4.70
2018-01-17T03:23:04.310Z,1.40
2018-01-17T03:25:33.653Z,4.05
2018-01-17T03:28:03.251Z,2.35
2018-01-17T03:30:32.589Z,2.78
2018-01-17T03:33:01.919Z,1.70
2018-01-17T03:35:31.268Z,15.65
2018-01-17T03:38:00.629Z,3.75
2018-01-17T03:40:29.986Z,2.37
2018-01-17T03:42:59.319Z,3.22
2018-01-17T03:45:28.665Z,1.42
2018-01-17T03:47:58.793Z,1.65
2018-01-17T03:50:28.902Z,2.28
2018-01-17T03:52:58.249Z,2.20
2018-01-17T03:55:27.578Z,9.15
2018-01-17T03:57:57.441Z,3.30
2018-01-17T04:00:26.769Z,1.87
2018-01-17T04:02:56.113Z,4.40
2018-01-17T04:05:26.237Z,2.58
2018-01-17T04:07:55.572Z,2.80
2018-01-17T04:10:24.904Z,2.03
2018-01-17T04:12:54.246Z,2.08
2018-01-17T04:15:24.414Z,1.65
2018-01-17T04:17:53.752Z,4.40
2018-01-17T04:20:23.072Z,1.23
2018-01-17T04:22:52.436Z,4.15
2018-01-17T04:25:21.784Z,1.95
2018-01-17T04:27:51.129Z,1.00
2018-01-17T04:30:20.476Z,3.37
2018-01-17T04:32:50.560Z,1.75
2018-01-17T04:35:19.930Z,1.35
2018-01-17T04:37:49.255Z,1.52
2018-01-17T04:40:18.573Z,1.00
2018-01-17T04:42:47.910Z,1.05
2018-01-17T04:45:17.286Z,1.10
2018-01-17T04:47:46.630Z,1.83
2018-01-17T04:50:15.996Z,2.08
2018-01-17T04:52:45.759Z,1.33
2018-01-17T04:55:15.116Z,1.00
2018-01-17T04:57:45.245Z,1.00
2018-01-17T05:00:15.393Z,2.85
2018-01-17T05:02:44.726Z,2.50
2018-01-17T05:05:14.467Z,1.10
2018-01-17T05:07:43.789Z,2.47
2018-01-17T05:10:13.132Z,2.17
2018-01-17T05:12:42.498Z,3.05
2018-01-17T05:15:11.900Z,4.60
2018-01-17T05:17:41.341Z,1.10
2018-01-17T05:20:10.709Z,1.00
2018-01-17T05:22:40.057Z,1.62
2018-01-17T05:25:09.406Z,1.55
2018-01-17T05:27:38.742Z,2.30
2018-01-17T05:30:08.239Z,1.35
2018-01-17T05:32:37.573Z,1.65
2018-01-17T05:35:06.954Z,1.30
2018-01-17T05:37:36.320Z,2.22
2018-01-17T05:40:05.647Z,1.20
2018-01-17T05:42:34.980Z,1.70
2018-01-17T05:45:04.328Z,1.77
2018-01-17T05:47:33.680Z,1.40
2018-01-17T05:50:03.049Z,2.95
2018-01-17T05:52:32.399Z,6.05
2018-01-17T05:55:02.683Z,1.60
2018-01-17T05:57:32.030Z,2.10
2018-01-17T06:00:01.376Z,3.35
2018-01-17T06:02:30.733Z,1.35
2018-01-17T06:05:00.065Z,1.50
2018-01-17T06:07:29.391Z,1.58
2018-01-17T06:09:58.742Z,1.98
2018-01-17T06:12:28.097Z,1.67
2018-01-17T06:14:57.452Z,1.37
2018-01-17T06:17:26.791Z,1.83
2018-01-17T06:19:56.156Z,2.20
2018-01-17T06:22:25.509Z,2.87
2018-01-17T06:24:55.328Z,2.17
2018-01-17T06:27:24.669Z,1.65
2018-01-17T06:29:54.018Z,2.22
2018-01-17T06:32:23.357Z,3.30
2018-01-17T06:34:53.632Z,1.45
2018-01-17T06:37:23.117Z,3.65
2018-01-17T06:39:52.853Z,2.92
2018-01-17T06:42:22.182Z,1.23
2018-01-17T06:44:52.299Z,1.20
2018-01-17T06:47:21.651Z,2.83
2018-01-17T06:49:51.005Z,5.25
2018-01-17T06:52:20.334Z,2.37
2018-01-17T06:54:49.670Z,1.40
2018-01-17T06:57:19.004Z,2.08
2018-01-17T06:59:48.359Z,2.03
2018-01-17T07:02:17.700Z,7.03
2018-01-17T07:04:47.088Z,3.12
2018-01-17T07:07:16.445Z,3.30
2018-01-17T07:09:45.800Z,2.08
2018-01-17T07:12:15.286Z,1.25
2018-01-17T07:14:44.620Z,3.45
2018-01-17T07:17:14.758Z,3.80
2018-01-17T07:19:44.863Z,1.50
2018-01-17T07:22:14.985Z,1.87
2018-01-17T07:24:44.315Z,1.60
2018-01-17T07:27:13.648Z,2.33
2018-01-17T07:29:42.996Z,1.30
2018-01-17T07:32:13.106Z,1.70
2018-01-17T07:34:42.439Z,1.20
2018-01-17T07:37:11.772Z,3.03
2018-01-17T07:39:41.116Z,1.65
2018-01-17T07:42:11.233Z,5.93
2018-01-17T07:44:40.586Z,2.15
2018-01-17T07:47:09.955Z,1.73
2018-01-17T07:49:40.067Z,3.10
2018-01-17T07:52:10.196Z,2.33
2018-01-17T07:54:39.519Z,2.47
2018-01-17T07:57:08.885Z,3.25
2018-01-17T07:59:39.368Z,2.40
2018-01-17T08:02:08.705Z,1.52
2018-01-17T08:04:38.814Z,2.30
2018-01-17T08:07:08.180Z,3.03
2018-01-17T08:09:37.646Z,1.40
2018-01-17T08:12:08.404Z,2.05
2018-01-17T08:14:37.776Z,2.70
2018-01-17T08:17:07.911Z,2.08
2018-01-17T08:19:38.059Z,1.92
2018-01-17T08:22:07.388Z,3.15
2018-01-17T08:24:36.732Z,2.22
2018-01-17T08:27:06.097Z,1.70
2018-01-17T08:29:35.417Z,6.30
2018-01-17T08:32:04.898Z,7.90
2018-01-17T08:34:34.390Z,4.40
2018-01-17T08:37:04.567Z,2.33
2018-01-17T08:39:33.904Z,3.15
2018-01-17T08:42:03.298Z,3.03
2018-01-17T08:44:32.630Z,6.35
2018-01-17T08:47:02.076Z,2.08
2018-01-17T08:49:31.424Z,4.40
2018-01-17T08:52:00.845Z,3.95
2018-01-17T08:54:30.207Z,2.05
2018-01-17T08:56:59.545Z,5.18
2018-01-17T08:59:29.149Z,7.93
2018-01-17T09:01:58.473Z,3.28
2018-01-17T09:04:28.568Z,10.60
2018-01-17T09:06:57.928Z,2.35
2018-01-17T09:09:27.255Z,3.05
2018-01-17T09:11:56.574Z,6.75
2018-01-17T09:14:25.905Z,2.80
2018-01-17T09:16:56.023Z,5.50
2018-01-17T09:19:26.134Z,4.15
2018-01-17T09:21:55.478Z,2.85
2018-01-17T09:24:24.837Z,6.15
2018-01-17T09:26:55.006Z,2.08
2018-01-17T09:29:24.318Z,8.43
2018-01-17T09:31:53.664Z,3.75
2018-01-17T09:34:23.024Z,4.53
2018-01-17T09:36:53.115Z,1.75
2018-01-17T09:39:22.492Z,1.52
2018-01-17T09:41:52.586Z,8.27
2018-01-17T09:44:21.922Z,2.55
2018-01-17T09:46:51.272Z,3.22
2018-01-17T09:49:20.668Z,4.68
2018-01-17T09:51:50.016Z,4.50
2018-01-17T09:54:20.142Z,1.83
2018-01-17T09:56:49.489Z,2.67
2018-01-17T09:59:18.842Z,1.60
2018-01-17T10:01:48.944Z,1.98
2018-01-17T10:04:19.044Z,6.20
2018-01-17T10:06:48.526Z,3.60
2018-01-17T10:09:17.854Z,3.90
2018-01-17T10:11:47.227Z,7.97
2018-01-17T10:14:16.540Z,4.90
2018-01-17T10:16:46.023Z,4.15
2018-01-17T10:19:15.372Z,1.80
2018-01-17T10:21:44.701Z,2.35
2018-01-17T10:24:14.053Z,1.40
2018-01-17T10:26:43.409Z,1.37
2018-01-17T10:29:12.788Z,3.70
2018-01-17T10:31:42.885Z,1.40
2018-01-17T10:34:12.261Z,6.05
2018-01-17T10:36:41.629Z,5.70
2018-01-17T10:39:10.994Z,1.70
2018-01-17T10:41:40.343Z,1.60
2018-01-17T10:44:09.670Z,4.95
2018-01-17T10:46:39.022Z,1.60
2018-01-17T10:49:09.167Z,2.28
2018-01-17T10:51:38.503Z,1.37
2018-01-17T10:54:07.820Z,3.22
2018-01-17T10:56:37.161Z,1.55
2018-01-17T10:59:06.662Z,5.50
2018-01-17T11:01:35.986Z,1.45
2018-01-17T11:04:05.309Z,1.65
2018-01-17T11:06:34.670Z,4.07
2018-01-17T11:09:04.021Z,2.00
2018-01-17T11:11:33.342Z,2.60
2018-01-17T11:14:02.679Z,3.67
2018-01-17T11:16:32.030Z,6.50
2018-01-17T11:19:01.397Z,1.58
2018-01-17T11:21:30.798Z,3.95
2018-01-17T11:24:00.138Z,4.00
2018-01-17T11:26:29.489Z,1.65
2018-01-17T11:28:58.840Z,3.08
2018-01-17T11:31:29.115Z,4.57
2018-01-17T11:33:58.445Z,3.15
2018-01-17T11:36:28.965Z,2.15
2018-01-17T11:38:58.756Z,5.82
2018-01-17T11:41:28.191Z,2.05
2018-01-17T11:43:57.554Z,4.45
2018-01-17T11:46:26.939Z,3.50
2018-01-17T11:48:56.253Z,2.85
2018-01-17T11:51:25.593Z,1.55
2018-01-17T11:53:54.979Z,3.15
2018-01-17T11:56:24.363Z,2.42
2018-01-17T11:58:53.696Z,5.68
2018-01-17T12:01:23.051Z,5.37
2018-01-17T12:03:53.159Z,8.07
2018-01-17T12:06:22.494Z,2.42
2018-01-17T12:08:51.817Z,5.72
2018-01-17T12:11:21.173Z,8.77
2018-01-17T12:13:51.262Z,2.62
2018-01-17T12:16:20.634Z,4.65
2018-01-17T12:18:49.948Z,3.85
2018-01-17T12:21:19.291Z,5.03
2018-01-17T12:23:49.411Z,2.97
2018-01-17T12:26:18.778Z,4.20
2018-01-17T12:28:48.135Z,3.65
2018-01-17T12:31:17.462Z,3.55
2018-01-17T12:33:46.801Z,2.42
2018-01-17T12:36:16.141Z,6.75
2018-01-17T12:38:45.472Z,6.15
2018-01-17T12:41:14.829Z,3.78
2018-01-17T12:43:44.944Z,4.00
2018-01-17T12:46:15.049Z,9.02
2018-01-17T12:48:44.395Z,5.32
2018-01-17T12:51:13.747Z,4.57
2018-01-17T12:53:43.268Z,4.95
2018-01-17T12:56:13.355Z,8.43
2018-01-17T12:58:42.701Z,8.82
2018-01-17T13:01:12.787Z,5.65
2018-01-17T13:03:42.122Z,7.05
2018-01-17T13:06:12.449Z,4.37
2018-01-17T13:08:42.583Z,14.63
2018-01-17T13:11:11.910Z,5.45
2018-01-17T13:13:41.255Z,4.30
2018-01-17T13:16:10.673Z,6.93
2018-01-17T13:18:40.746Z,2.90
2018-01-17T13:21:10.122Z,2.05
2018-01-17T13:23:39.470Z,7.87
2018-01-17T13:26:08.808Z,9.25
2018-01-17T13:28:38.146Z,3.60
2018-01-17T13:31:07.507Z,5.87
2018-01-17T13:33:36.861Z,10.20
2018-01-17T13:36:06.193Z,7.82
2018-01-17T13:38:35.513Z,2.85
2018-01-17T13:41:04.843Z,6.68
2018-01-17T13:43:34.917Z,6.40
2018-01-17T13:46:05.018Z,5.12
2018-01-17T13:48:35.168Z,4.62
2018-01-17T13:51:04.542Z,6.60
2018-01-17T13:53:33.893Z,4.03
2018-01-17T13:56:03.232Z,15.10
2018-01-17T13:58:32.591Z,5.55
2018-01-17T14:01:01.917Z,15.77
2018-01-17T14:03:31.269Z,6.97
2018-01-17T14:06:01.376Z,7.07
2018-01-17T14:08:30.727Z,6.68
2018-01-17T14:11:00.108Z,5.65
2018-01-17T14:13:29.454Z,5.00
2018-01-17T14:15:58.778Z,10.80
2018-01-17T14:18:28.905Z,4.72
2018-01-17T14:20:58.220Z,7.07
2018-01-17T14:23:27.565Z,3.90
2018-01-17T14:25:56.910Z,4.25
2018-01-17T14:28:27.028Z,9.13
2018-01-17T14:30:57.153Z,6.55
2018-01-17T14:33:27.275Z,5.30
2018-01-17T14:35:57.395Z,7.40
2018-01-17T14:38:27.486Z,9.45
2018-01-17T14:40:56.830Z,7.25
2018-01-17T14:43:26.183Z,4.53
2018-01-17T14:45:55.504Z,5.00
2018-01-17T14:48:25.625Z,6.45
2018-01-17T14:50:55.744Z,7.97
2018-01-17T14:53:26.025Z,8.43
2018-01-17T14:55:55.502Z,9.48
2018-01-17T14:58:24.858Z,5.55
2018-01-17T15:00:54.183Z,7.97
2018-01-17T15:03:24.300Z,8.30
2018-01-17T15:05:53.648Z,5.32
2018-01-17T15:08:23.006Z,10.70
2018-01-17T15:10:53.106Z,11.68
2018-01-17T15:13:22.442Z,8.65
2018-01-17T15:15:51.818Z,12.68
2018-01-17T15:18:21.930Z,8.77
2018-01-17T15:20:51.281Z,7.22
2018-01-17T15:23:20.627Z,11.98
2018-01-17T15:25:49.989Z,3.95
2018-01-17T15:28:19.323Z,6.18
2018-01-17T15:30:48.655Z,8.30
2018-01-17T15:33:18.761Z,9.98
2018-01-17T15:35:48.885Z,14.18
2018-01-17T15:38:18.997Z,9.95
2018-01-17T15:40:48.313Z,10.27
2018-01-17T15:43:18.434Z,6.03
2018-01-17T15:45:48.555Z,13.65
2018-01-17T15:48:18.645Z,9.48
2018-01-17T15:50:47.967Z,9.90
2018-01-17T15:53:17.307Z,14.65
2018-01-17T15:55:46.659Z,11.43
2018-01-17T15:58:16.755Z,8.48
2018-01-17T16:00:46.110Z,9.68
2018-01-17T16:03:15.451Z,10.07
2018-01-17T16:05:44.788Z,10.10
2018-01-17T16:08:14.930Z,14.80
2018-01-17T16:10:44.259Z,8.05
2018-01-17T16:13:13.741Z,10.40
2018-01-17T16:15:43.161Z,5.97
2018-01-17T16:18:16.462Z,8.85
2018-01-17T16:20:45.783Z,9.30
2018-01-17T16:23:15.132Z,9.70
2018-01-17T16:25:44.514Z,22.33
2018-01-17T16:28:13.843Z,10.95
2018-01-17T16:30:43.204Z,7.50
2018-01-17T16:33:12.562Z,8.80
2018-01-17T16:35:41.936Z,8.32
2018-01-17T16:38:12.914Z,10.18
2018-01-17T16:40:42.273Z,9.73
2018-01-17T16:43:12.418Z,10.38
2018-01-17T16:45:41.771Z,12.13
2018-01-17T16:48:11.123Z,6.87
2018-01-17T16:50:40.481Z,9.55
2018-01-17T16:53:09.822Z,8.73
2018-01-17T16:55:39.162Z,11.60
2018-01-17T16:58:08.543Z,7.15
2018-01-17T17:00:37.856Z,6.93
2018-01-17T17:03:07.204Z,7.47
2018-01-17T17:05:37.310Z,13.23
2018-01-17T17:08:06.648Z,8.63
2018-01-17T17:10:37.295Z,9.45
2018-01-17T17:13:06.634Z,14.27
2018-01-17T17:15:35.977Z,10.23
2018-01-17T17:18:05.323Z,10.23
2018-01-17T17:20:34.673Z,10.50
2018-01-17T17:23:04.021Z,10.63
2018-01-17T17:25:33.342Z,12.63
2018-01-17T17:28:02.693Z,12.00
2018-01-17T17:30:32.049Z,12.25
2018-01-17T17:33:01.394Z,8.38
2018-01-17T17:35:30.761Z,16.60
2018-01-17T17:38:00.862Z,5.60
2018-01-17T17:40:30.211Z,7.32
2018-01-17T17:42:59.535Z,4.95
2018-01-17T17:45:29.019Z,9.88
2018-01-17T17:47:58.333Z,7.25
2018-01-17T17:50:27.655Z,8.57
2018-01-17T17:52:57.163Z,6.37
2018-01-17T17:55:26.505Z,7.18
2018-01-17T17:57:55.846Z,7.60
2018-01-17T18:00:25.205Z,24.80
2018-01-17T18:02:54.563Z,13.10
2018-01-17T18:05:24.288Z,15.20
2018-01-17T18:07:53.618Z,18.62
2018-01-17T18:10:22.946Z,12.55
2018-01-17T18:12:52.296Z,6.72
2018-01-17T18:15:21.673Z,12.63
2018-01-17T18:17:51.001Z,18.17
2018-01-17T18:20:20.910Z,9.07
2018-01-17T18:22:50.271Z,15.13
2018-01-17T18:25:19.681Z,6.55
2018-01-17T18:27:49.975Z,13.80
2018-01-17T18:30:19.507Z,18.83
2018-01-17T18:32:48.860Z,16.95
2018-01-17T18:35:18.198Z,10.35
2018-01-17T18:37:47.942Z,16.17
2018-01-17T18:40:17.307Z,10.35
2018-01-17T18:42:47.516Z,12.02
2018-01-17T18:45:17.046Z,12.37
2018-01-17T18:47:46.410Z,9.65
2018-01-17T18:50:15.778Z,5.57
2018-01-17T18:52:45.131Z,13.73
2018-01-17T18:55:14.461Z,11.77
2018-01-17T18:57:43.811Z,11.98
2018-01-17T19:00:13.177Z,10.45
2018-01-17T19:02:42.533Z,13.07
2018-01-17T19:05:11.880Z,5.87
2018-01-17T19:07:41.266Z,14.45
2018-01-17T19:10:10.593Z,17.90
2018-01-17T19:12:39.946Z,9.70
2018-01-17T19:15:09.278Z,13.15
2018-01-17T19:17:38.627Z,14.50
2018-01-17T19:20:07.963Z,14.80
2018-01-17T19:22:37.302Z,19.10
2018-01-17T19:25:06.679Z,15.00
2018-01-17T19:27:36.023Z,19.08
2018-01-17T19:30:05.369Z,9.90
2018-01-17T19:32:34.745Z,9.68
2018-01-17T19:35:04.079Z,16.55
2018-01-17T19:37:33.437Z,9.57
2018-01-17T19:40:02.792Z,13.45
2018-01-17T19:42:32.134Z,14.65
2018-01-17T19:45:01.478Z,16.80
2018-01-17T19:47:30.810Z,14.23
2018-01-17T19:50:00.160Z,21.45
2018-01-17T19:52:30.620Z,16.50
2018-01-17T19:55:00.053Z,9.90
2018-01-17T19:57:29.390Z,15.93
2018-01-17T19:59:58.733Z,9.30
2018-01-17T20:02:28.066Z,10.27
2018-01-17T20:04:57.451Z,9.02
2018-01-17T20:07:26.886Z,7.20
2018-01-17T20:09:56.212Z,8.10
2018-01-17T20:12:25.567Z,10.23
2018-01-17T20:14:54.970Z,13.40
2018-01-17T20:17:24.310Z,10.25
2018-01-17T20:19:53.686Z,6.75
2018-01-17T20:22:23.051Z,20.20
2018-01-17T20:24:52.408Z,13.50
2018-01-17T20:27:21.757Z,14.57
2018-01-17T20:29:51.128Z,23.83
2018-01-17T20:32:20.468Z,11.12
2018-01-17T20:34:49.806Z,13.02
2018-01-17T20:37:19.166Z,13.80
2018-01-17T20:39:48.524Z,17.33
2018-01-17T20:42:18.035Z,18.83
2018-01-17T20:44:47.377Z,15.95
2018-01-17T20:47:16.703Z,12.18
2018-01-17T20:49:46.040Z,13.40
2018-01-17T20:52:15.373Z,9.45
2018-01-17T20:54:44.693Z,8.63
2018-01-17T20:57:14.072Z,10.50
2018-01-17T20:59:43.424Z,9.48
2018-01-17T21:02:12.752Z,9.85
2018-01-17T21:04:42.122Z,9.23
2018-01-17T21:07:11.449Z,12.60
2018-01-17T21:09:41.496Z,11.65
2018-01-17T21:12:10.844Z,7.47
2018-01-17T21:14:40.162Z,6.47
2018-01-17T21:17:09.501Z,12.93
2018-01-17T21:19:38.883Z,8.25
2018-01-17T21:22:08.238Z,9.15
2018-01-17T21:24:37.555Z,10.90
2018-01-17T21:27:06.937Z,12.35
2018-01-17T21:29:36.277Z,8.25
2018-01-17T21:32:06.384Z,17.33
2018-01-17T21:34:35.739Z,11.73
2018-01-17T21:37:05.097Z,10.00
2018-01-17T21:39:34.470Z,11.40
2018-01-17T21:42:03.788Z,8.45
2018-01-17T21:44:38.689Z,10.48
2018-01-17T21:47:08.043Z,12.10
2018-01-17T21:49:37.401Z,9.25
2018-01-17T21:52:06.745Z,8.70
2018-01-17T21:54:36.094Z,9.20
2018-01-17T21:57:05.431Z,7.03
2018-01-17T21:59:35.550Z,6.95
2018-01-17T22:02:04.883Z,10.93
2018-01-17T22:04:34.226Z,7.00
2018-01-17T22:07:03.574Z,8.98
2018-01-17T22:09:32.894Z,4.53
2018-01-17T22:12:02.969Z,7.30
2018-01-17T22:14:32.290Z,8.73
2018-01-17T22:17:02.157Z,6.25
2018-01-17T22:19:31.515Z,6.55
2018-01-17T22:22:00.854Z,4.62
2018-01-17T22:24:30.228Z,5.10
2018-01-17T22:26:59.550Z,6.43
2018-01-17T22:29:28.893Z,2.97
2018-01-17T22:31:58.372Z,2.87
2018-01-17T22:34:27.725Z,4.78
2018-01-17T22:36:57.030Z,2.45
2018-01-17T22:39:26.361Z,2.03
2018-01-17T22:41:55.694Z,3.90
2018-01-17T22:44:25.073Z,5.37
2018-01-17T22:46:54.434Z,3.87
2018-01-17T22:49:23.789Z,12.40
2018-01-17T22:51:53.121Z,6.22
2018-01-17T22:54:22.455Z,8.30
2018-01-17T22:56:51.800Z,6.78
2018-01-17T22:59:21.145Z,6.78
2018-01-17T23:01:51.237Z,3.95
2018-01-17T23:04:20.590Z,5.50
2018-01-17T23:06:49.943Z,5.25
2018-01-17T23:09:19.294Z,5.28
2018-01-17T23:11:48.614Z,6.70
2018-01-17T23:14:17.966Z,5.03
2018-01-17T23:16:47.329Z,4.18
2018-01-17T23:19:16.667Z,11.75
2018-01-17T23:21:45.999Z,4.78
2018-01-17T23:24:15.351Z,10.15
2018-01-17T23:26:45.614Z,5.95
2018-01-17T23:29:14.973Z,7.05
2018-01-17T23:31:45.058Z,8.00
2018-01-17T23:34:14.416Z,6.15
2018-01-17T23:36:43.757Z,7.30
2018-01-17T23:39:13.114Z,3.40
2018-01-17T23:41:42.480Z,8.43
2018-01-17T23:44:12.581Z,8.05
2018-01-17T23:46:41.946Z,4.85
2018-01-17T23:49:11.273Z,6.12
2018-01-17T23:51:40.641Z,5.80
2018-01-17T23:54:09.961Z,5.45
2018-01-17T23:56:39.290Z,5.37
2018-01-17T23:59:08.629Z,4.60
